Station: Kalumburu  

  Atmospheric Gas Attenuation - ITU Rec 676-11   ----------------- dB/100km -----------------
Date Time Temp RH % AH g/m3 Dew Point Wind Direction Speed kph Gust kph Barometer mB Rainfall Since 9am 24GHz 47GHz 76GHz 122GHz 134GHz 241GHz
08/05 11:00 27.9 34 9.2 10.6 20 35 1014.7 0 20.2 23.1 35.5 93.2 89.1 307.7
08/05 10:50 28.3 36 9.95 11.8 9 15 1014.6 0 21.7 24.0 37.9 99.6 97.1 335.8
08/05 10:40 27.7 36 9.63 11.3 17 19 1014.6 0 21.1 23.7 37.1 97.4 94.2 325.4
08/05 10:30 27 35 9.01 10.2 19 32 1014.8 0 19.8 23.0 35.3 92.5 88.0 303.7
08/05 10:20 27.1 35 9.06 10.7 17 24 1014.8 0 19.9 23.1 35.4 92.9 88.5 305.2
08/05 10:10 26.4 36 8.96 10.1 22 28 1014.7 0 19.7 23.1 35.3 92.7 88.1 303.9
08/05 10:00 26.2 36 8.86 10 19 33 1014.9 0 19.5 23.0 35.1 92.1 87.2 300.7
08/05 09:50 26.2 37 9.11 10.4 15 24 1014.9 0 20.1 23.4 36.0 94.4 90.0 310.6
08/05 09:40 25.5 36 8.52 9.3 15 19 1014.9 0 18.9 22.7 34.2 89.7 84.1 289.8
08/05 09:30 25.4 37 8.71 9.7 15 28 1015 0 19.3 23.0 34.9 91.6 86.4 297.7
08/05 09:20 24.8 38 8.65 9.5 20 26 1014.8 0 19.2 23.1 35.0 91.7 86.3 297.4
08/05 09:10 24.6 38 8.55 9.3 19 26 1014.7 0 19.0 23.0 34.7 91.0 85.4 294.1
08/05 09:00 24.3 38 8.41 9.1 15 26 1014.8 0 18.7 22.8 34.3 90.0 84.1 289.6
08/05 08:50 23.9 39 8.44 9.1 17 22 1014.6 0 18.8 23.0 34.6 90.7 84.8 292.2
08/05 08:40 23.6 40 8.51 9.2 19 24 1014.6 0 18.9 23.2 35.0 91.7 86.0 296.1
08/05 08:30 23.4 42 8.83 9.8 13 19 1014.6 0 19.6 23.7 36.2 95.0 89.9 309.9
08/05 08:20 23.2 41 8.52 9.2 15 19 1014.4 0 19.0 23.3 35.2 92.2 86.5 298.0
08/05 08:10 22.8 43 8.74 9.6 17 24 1014.4 0 19.5 23.7 36.1 94.8 89.5 308.5
08/05 08:00 22.4 44 8.74 9.6 11 20 1014.5 0 19.5 23.8 36.3 95.3 90.0 310.0
08/05 07:50 21.8 45 8.63 9.3 9 11 1014.3 0 19.3 23.8 36.2 94.9 89.3 307.7
08/05 07:40 21.2 48 8.89 9.8 7 7 1014.1 0 19.8 24.3 37.4 98.1 93.1 320.9
08/05 07:30 20.5 50 8.9 9.7 9 13 1014.2 0 19.9 24.5 37.8 99.1 94.1 324.1
08/05 07:20 19.9 53 9.11 10 7 11 1014 0 20.4 25.0 38.8 101.9 97.4 335.6
08/05 07:10 19.2 56 9.23 10.2 9 11 1013.9 0 20.7 25.4 39.6 104.0 99.7 343.8
08/05 07:00 18.5 60 9.49 10.6 6 11 1014 0 21.2 26.0 41.0 107.6 103.9 358.4
08/05 06:50 17.7 66 9.96 11.3 2 6 1013.8 0 22.3 27.0 43.2 113.7 111.1 383.4
08/05 06:40 17.1 67 9.75 10.9 0 0 1013.7 0 21.9 26.8 42.7 112.3 109.2 376.7
08/05 06:30 17.3 70 10.31 11.8 0 0 1013.7 0 23.1 27.6 44.9 118.0 116.3 401.6
08/05 06:20 17.8 62 9.41 10.4 0 0 1013.5 0 21.1 26.0 41.0 107.7 103.8 357.9
08/05 06:10 18.1 63 9.73 11 6 6 1013.5 0 21.8 26.5 42.1 110.6 107.5 370.9
08/05 06:00 18.1 65 10.04 11.4 6 7 1013.5 0 22.4 26.9 43.3 113.9 111.6 385.1
08/05 05:50 18.4 68 10.69 12.4 6 6 1013.4 0 23.8 27.9 45.8 120.4 119.7 413.6
08/05 05:40 18.8 61 9.82 11.1 6 7 1013.3 0 21.9 26.4 42.1 110.6 107.7 371.7
08/05 05:30 19 65 10.59 12.3 7 9 1013.4 0 23.6 27.6 45.0 118.4 117.4 405.8
08/05 05:20 19 66 10.75 12.5 6 7 1013.2 0 23.9 27.8 45.6 120.1 119.5 413.1
08/05 05:10 19.3 55 9.12 10 6 7 1013.2 0 20.4 25.1 39.1 102.7 98.2 338.3
08/05 05:00 19.6 54 9.12 10 2 7 1013.3 0 20.4 25.1 39.0 102.3 97.8 337.1
08/05 04:50 20.6 50 8.95 9.8 4 6 1013.1 0 20.0 24.5 37.8 99.3 94.5 325.6
08/05 04:40 21.1 48 8.84 9.7 7 7 1012.9 0 19.7 24.2 37.2 97.6 92.5 318.8
08/05 04:30 21.5 46 8.67 9.4 7 11 1013 0 19.4 23.9 36.4 95.5 90.0 310.2
08/05 04:20 22.1 44 8.59 9.3 7 11 1012.9 0 19.2 23.6 35.8 94.0 88.4 304.5
08/05 04:10 22.5 43 8.59 9.3 11 17 1013 0 19.2 23.5 35.7 93.6 88.0 303.1
08/05 04:00 22.1 45 8.78 9.6 9 15 1013.1 0 19.6 23.9 36.5 95.9 90.7 312.5
08/05 03:50 22.1 44 8.59 9.3 9 11 1013.1 0 19.2 23.6 35.9 94.0 88.4 304.6
08/05 03:40 22.6 43 8.64 9.4 13 19 1013.2 0 19.3 23.5 35.8 93.9 88.5 304.8
08/05 03:30 22.4 44 8.74 9.6 9 17 1013.3 0 19.5 23.7 36.3 95.1 89.9 309.7
08/05 03:20 22.3 44 8.69 9.5 11 13 1013.2 0 19.4 23.7 36.1 94.8 89.4 308.0
08/05 03:10 22.8 42 8.53 9.2 13 15 1013.4 0 19.0 23.3 35.3 92.7 87.0 299.6
08/05 03:00 22.4 44 8.74 9.6 9 13 1013.6 0 19.5 23.8 36.3 95.2 89.9 309.8
08/05 02:50 22.5 44 8.79 9.6 9 11 1013.6 0 19.6 23.8 36.4 95.5 90.4 311.5
08/05 02:40 22.4 44 8.74 9.6 9 13 1013.5 0 19.5 23.8 36.3 95.2 89.9 309.8
08/05 02:30 21.9 46 8.88 9.8 7 11 1013.7 0 19.8 24.1 37.0 97.1 92.1 317.6
08/05 02:20 22 46 8.93 9.9 7 11 1013.7 0 19.9 24.1 37.2 97.5 92.6 319.3
08/05 02:10 21.4 50 9.37 10.6 6 7 1013.8 0 20.8 25.0 39.1 102.6 98.7 340.4
08/05 02:00 21.6 48 9.1 10.1 6 9 1014 0 20.3 24.5 38.0 99.7 95.2 328.1
08/05 01:50 21.2 50 9.27 10.4 6 7 1013.9 0 20.6 24.9 38.8 101.8 97.7 337.0
08/05 01:40 20.7 53 9.54 10.8 4 7 1013.9 0 21.2 25.4 40.0 105.2 101.7 350.8
08/05 01:30 20.8 53 9.6 10.9 6 9 1013.9 0 21.4 25.5 40.2 105.7 102.3 353.0
08/05 01:20 20.4 54 9.55 10.8 6 7 1013.9 0 21.3 25.5 40.2 105.7 102.2 352.6
08/05 01:10 20.3 55 9.67 11 0 0 1014 0 21.5 25.7 40.7 107.0 103.8 358.3
08/05 01:00 20.4 57 10.08 11.6 2 7 1014.3 0 22.4 26.4 42.3 111.1 108.9 376.0
08/05 00:50 20.6 56 10.02 11.5 6 9 1014.2 0 22.3 26.2 41.9 110.2 107.8 372.4
08/05 00:40 20.3 56 9.85 11.2 6 7 1014.2 0 21.9 26.0 41.4 108.9 106.1 366.3
08/05 00:30 20 62 10.71 12.5 6 9 1014.4 0 23.8 27.5 45.0 118.3 117.6 406.4
08/05 00:20 20.3 65 11.43 13.5 6 7 1014.4 0 25.3 28.5 47.7 125.6 126.6 438.0
08/05 00:10 20.7 62 11.16 13.2 7 9 1014.5 0 24.7 28.0 46.4 122.1 122.4 423.4
08/05 00:00 20.1 70 12.17 14.5 6 9 1014.6 0 26.8 29.9 50.9 134.0 137.0 474.1
07/05 23:50 20.1 68 11.82 14 6 7 1014.5 0 26.1 29.3 49.4 130.2 132.2 457.5
07/05 23:40 20.3 68 11.96 14.2 6 6 1014.6 0 26.4 29.4 49.9 131.4 133.8 462.9
07/05 23:30 20.6 64 11.45 13.6 4 7 1014.7 0 25.3 28.5 47.6 125.3 126.4 437.4
07/05 23:20 20.9 58 10.56 12.3 6 7 1014.6 0 23.4 27.0 43.9 115.4 114.3 395.2
07/05 23:10 21 66 12.09 14.4 6 7 1014.6 0 26.6 29.4 50.0 131.6 134.3 464.9
07/05 23:00 21 60 10.99 12.9 6 9 1014.7 0 24.3 27.6 45.5 119.8 119.8 414.1
07/05 22:50 20.8 65 11.77 14 4 6 1014.6 0 25.9 29.0 48.8 128.5 130.3 451.1
07/05 22:40 21 55 10.07 11.6 0 0 1014.6 0 22.3 26.2 41.9 110.2 108.0 372.9
07/05 22:30 20.9 64 11.65 13.8 6 7 1014.7 0 25.7 28.7 48.2 127.0 128.6 445.0
07/05 22:20 20.7 69 12.42 14.8 4 6 1014.6 0 27.3 30.1 51.5 135.8 139.3 482.4
07/05 22:10 20.9 67 12.2 14.5 4 6 1014.6 0 26.9 29.6 50.5 133.0 136.0 470.7
07/05 22:00 21.3 60 11.18 13.2 6 7 1014.7 0 24.7 27.8 46.1 121.4 121.8 421.1
07/05 21:50 21.9 55 10.61 12.5 7 7 1014.5 0 23.4 26.7 43.5 114.5 113.5 392.4
07/05 21:40 21.7 57 10.87 12.8 6 7 1014.5 0 24.0 27.2 44.6 117.5 117.1 405.0
07/05 21:30 21.5 58 10.94 12.9 6 9 1014.5 0 24.1 27.4 45.0 118.5 118.3 409.2
07/05 21:20 21.4 59 11.06 13.1 6 7 1014.3 0 24.4 27.6 45.6 119.9 120.0 415.0
07/05 21:10 21.2 63 11.67 13.9 6 7 1014.2 0 25.7 28.6 48.1 126.7 128.3 444.0
07/05 19:40 21.2 63 11.67 13.9 6 7 1014.2 0 25.7 28.6 48.1 126.7 128.3 444.0
07/05 21:00 21.1 66 12.16 14.5 6 7 1014.2 0 26.8 29.5 50.2 132.2 135.0 467.5
07/05 20:50 21.2 64 11.86 14.1 6 7 1014 0 26.1 28.9 48.9 128.7 130.8 452.8
07/05 20:40 21.6 61 11.57 13.8 4 6 1013.9 0 25.5 28.3 47.4 124.9 126.3 437.1
07/05 20:30 22.1 56 10.93 12.9 6 7 1013.9 0 24.1 27.2 44.6 117.4 117.2 405.4
07/05 20:20 22.4 58 11.52 13.7 4 6 1013.6 0 25.3 28.0 46.8 123.1 124.3 430.3
07/05 20:10 23 51 10.48 12.3 2 6 1013.4 0 23.1 26.2 42.4 111.5 110.2 381.0
07/05 20:00 22.8 55 11.18 13.3 4 7 1013.4 0 24.6 27.3 45.2 118.9 119.3 412.8
07/05 19:50 22.6 54 10.85 12.8 6 7 1013.2 0 23.9 26.9 44.0 115.8 115.4 399.1
07/05 19:39 23 54 11.1 13.2 4 6 1013.1 0 24.4 27.1 44.7 117.8 118.0 408.1
07/05 18:09 23 54 11.1 13.2 4 6 1013.1 0 24.4 27.1 44.7 117.8 118.0 408.1
07/05 19:30 23.2 53 11.02 13.1 4 7 1013.1 0 24.2 26.9 44.3 116.7 116.7 403.6
07/05 19:20 23.8 50 10.76 12.8 7 9 1012.9 0 23.6 26.4 43.0 113.1 112.5 389.1
07/05 19:10 24.3 48 10.62 12.6 6 7 1012.8 0 23.3 26.0 42.2 111.0 110.1 380.7
07/05 19:00 25.1 45 10.42 12.3 6 7 1012.8 0 22.9 25.5 41.1 108.0 106.5 368.4
07/05 18:50 26.1 41 10.04 11.8 6 7 1012.6 0 22.0 24.6 39.2 103.0 100.7 348.1

Last Refresh: 08-May-2026 11:03:01

Bureau of Meteorology